Time;durP1;ratioP1;P1;durP2;ratioP2;P2;SDS_P1;SDS_P2;PMS_P1;PMS_P2;Temp;Humidity;BMP_temperature;BMP_pressure;BME280_temperature;BME280_humidity;BME280_pressure;Samples;Min_cycle;Max_cycle;Signal;HPM_P1;HPM_P2
2021/11/15 00:00:44;;;;;;;10.13;7.20;;;11.70;99.90;;;11.19;100.00;102009.50;4134962;28;20027;-69
2021/11/15 00:02:45;;;;;;;11.52;6.90;;;11.70;99.90;;;11.21;100.00;102017.28;4119908;28;20062;-69
2021/11/15 00:04:46;;;;;;;9.27;6.82;;;11.60;99.90;;;11.15;100.00;102015.16;4120068;28;20098;-69
2021/11/15 00:06:48;;;;;;;13.30;7.45;;;11.60;99.90;;;11.11;100.00;102017.22;4119935;28;20387;-69
2021/11/15 00:08:49;;;;;;;10.45;7.18;;;11.60;99.90;;;11.07;100.00;102014.03;4123145;28;20033;-69
2021/11/15 00:10:50;;;;;;;13.82;7.88;;;11.50;99.90;;;11.10;100.00;102021.69;4135079;28;20026;-69
2021/11/15 00:12:51;;;;;;;9.75;6.70;;;11.50;99.90;;;10.94;100.00;102021.28;4129192;28;20023;-69
2021/11/15 00:14:52;;;;;;;11.05;6.72;;;11.40;99.90;;;10.84;100.00;102003.69;4135813;28;20026;-69
2021/11/15 00:16:53;;;;;;;8.43;6.68;;;11.30;99.90;;;10.87;100.00;102014.81;4135848;28;20656;-69
2021/11/15 00:18:54;;;;;;;10.30;7.80;;;11.30;99.90;;;10.65;100.00;102003.53;4136201;28;20034;-69
2021/11/15 00:20:55;;;;;;;14.50;8.30;;;11.20;99.90;;;10.74;100.00;102008.03;4134804;28;20030;-69
2021/11/15 00:22:56;;;;;;;11.38;8.30;;;11.20;99.90;;;10.63;100.00;101997.53;4131964;28;20100;-69
2021/11/15 00:24:57;;;;;;;13.05;7.65;;;11.20;99.90;;;10.68;100.00;102004.13;4135785;28;20032;-69
2021/11/15 00:26:58;;;;;;;9.20;6.43;;;11.10;99.90;;;10.65;100.00;102004.38;4135939;28;20034;-69
2021/11/15 00:29:00;;;;;;;10.45;6.75;;;11.00;99.90;;;10.53;100.00;101994.81;4135675;28;20026;-69
2021/11/15 00:31:01;;;;;;;11.25;7.32;;;10.90;99.90;;;10.50;100.00;101998.53;4136051;28;20022;-69
2021/11/15 00:33:02;;;;;;;9.68;6.63;;;10.90;99.90;;;10.52;100.00;101993.13;4135720;28;20024;-69
2021/11/15 00:35:05;;;;;;;10.35;7.13;;;10.90;99.90;;;10.47;100.00;101996.16;4135931;28;20026;-69
2021/11/15 00:37:06;;;;;;;12.13;7.20;;;10.80;99.90;;;10.57;100.00;101985.69;4135794;28;20029;-69
2021/11/15 00:39:07;;;;;;;12.77;8.25;;;10.70;99.90;;;10.68;100.00;101977.72;4135793;28;20507;-69
2021/11/15 00:41:09;;;;;;;10.60;7.20;;;10.80;99.90;;;10.52;100.00;101978.13;4135575;28;20407;-69
2021/11/15 00:43:10;;;;;;;11.10;7.00;;;10.80;99.90;;;10.34;100.00;101984.91;4134594;28;20557;-69
2021/11/15 00:45:14;;;;;;;8.10;6.40;;;10.70;99.90;;;10.24;100.00;101983.16;4127789;28;20034;-69
2021/11/15 00:47:14;;;;;;;15.77;7.63;;;10.60;99.90;;;10.19;100.00;101991.41;4135645;28;20122;-69
2021/11/15 00:49:15;;;;;;;9.50;6.35;;;10.50;99.90;;;10.09;100.00;101990.47;4120826;28;20499;-69
2021/11/15 00:51:16;;;;;;;15.40;7.13;;;10.40;99.90;;;10.04;100.00;101982.06;4119544;28;20030;-69
2021/11/15 00:53:17;;;;;;;10.95;7.50;;;10.40;99.90;;;9.78;100.00;101973.59;4120426;28;20106;-69
2021/11/15 00:55:19;;;;;;;9.93;6.13;;;10.30;99.90;;;9.76;100.00;101983.44;4123154;28;20072;-69
2021/11/15 00:57:21;;;;;;;10.27;7.53;;;10.20;99.90;;;9.82;100.00;101997.91;4153920;28;20030;-69
2021/11/15 00:59:21;;;;;;;8.73;6.00;;;10.10;99.90;;;9.62;100.00;101995.97;4153894;28;20042;-69
2021/11/15 01:01:23;;;;;;;8.98;6.35;;;10.00;99.90;;;9.54;100.00;101999.22;4122890;28;20031;-69
2021/11/15 01:03:24;;;;;;;8.48;6.45;;;9.90;99.90;;;9.50;100.00;102010.13;4122822;28;20031;-69
2021/11/15 01:05:27;;;;;;;7.53;5.82;;;9.90;99.90;;;9.49;100.00;102004.00;4122677;28;20023;-69
2021/11/15 01:07:28;;;;;;;12.10;6.00;;;9.90;99.90;;;9.48;100.00;102004.13;4122786;28;20034;-69
2021/11/15 01:09:29;;;;;;;8.88;6.13;;;9.80;99.90;;;9.44;100.00;102003.50;4122795;28;20033;-69
2021/11/15 01:11:31;;;;;;;8.70;6.13;;;9.90;99.90;;;9.42;100.00;101992.25;4122734;28;20031;-69
2021/11/15 01:13:32;;;;;;;9.82;6.53;;;10.00;99.90;;;9.50;100.00;102004.84;4122577;28;20395;-69
2021/11/15 01:15:34;;;;;;;7.15;5.35;;;10.00;99.90;;;9.45;100.00;101990.25;4153539;28;20030;-69
2021/11/15 01:17:36;;;;;;;11.63;7.00;;;10.00;99.90;;;9.68;100.00;101998.97;4137521;28;20023;-69
2021/11/15 01:19:37;;;;;;;10.50;6.07;;;10.10;99.90;;;9.69;100.00;101997.19;4138692;28;20062;-69
2021/11/15 01:21:38;;;;;;;13.15;8.07;;;10.10;99.90;;;9.91;100.00;101995.41;4138523;28;20031;-69
2021/11/15 01:23:40;;;;;;;12.77;8.10;;;10.20;99.90;;;10.01;100.00;102004.25;4137558;28;20030;-69
2021/11/15 01:25:42;;;;;;;12.52;7.88;;;10.30;99.90;;;10.08;100.00;102009.88;4130430;28;20080;-69
2021/11/15 01:27:43;;;;;;;13.88;9.65;;;10.30;99.90;;;10.27;100.00;102009.28;4138439;28;20030;-69
2021/11/15 01:29:45;;;;;;;10.93;7.95;;;10.40;99.90;;;10.22;100.00;102011.44;4138149;28;20057;-69
2021/11/15 01:31:46;;;;;;;13.35;8.05;;;10.50;99.90;;;10.25;100.00;102009.38;4138714;28;20042;-69
2021/11/15 01:33:47;;;;;;;11.20;6.65;;;10.60;99.90;;;10.10;100.00;102013.22;4138410;28;20022;-69
2021/11/15 01:35:48;;;;;;;14.23;8.52;;;10.60;99.90;;;10.15;100.00;102011.09;4138370;28;20041;-69
2021/11/15 01:37:50;;;;;;;11.55;6.45;;;10.50;99.90;;;10.05;100.00;102004.84;4138261;28;20030;-69
2021/11/15 01:39:51;;;;;;;10.48;7.53;;;10.50;99.90;;;10.05;100.00;102007.47;4138382;28;20106;-69
2021/11/15 01:41:52;;;;;;;12.48;6.97;;;10.50;99.90;;;9.90;100.00;102001.63;4138182;28;20125;-69
2021/11/15 01:43:53;;;;;;;12.40;8.07;;;10.40;99.90;;;10.03;100.00;102001.50;4138015;28;20037;-69
2021/11/15 01:45:54;;;;;;;11.73;7.78;;;10.40;99.90;;;10.02;100.00;102007.72;4138195;28;20058;-69
2021/11/15 01:47:59;;;;;;;12.88;8.50;;;10.40;99.90;;;10.00;100.00;102005.19;4134712;28;20034;-69
2021/11/15 01:50:01;;;;;;;12.93;8.00;;;10.40;99.90;;;9.79;100.00;101993.72;4122095;28;20034;-69
2021/11/15 01:52:02;;;;;;;8.23;6.13;;;10.30;99.90;;;9.83;100.00;102010.97;4153201;28;20030;-70
2021/11/15 01:54:03;;;;;;;13.23;7.78;;;10.30;99.90;;;9.94;100.00;102010.13;4153068;28;20026;-69
2021/11/15 01:56:05;;;;;;;11.52;7.50;;;10.30;99.90;;;10.02;100.00;102005.09;4122055;28;20034;-69
2021/11/15 01:58:09;;;;;;;11.95;6.75;;;10.30;99.90;;;10.05;100.00;102006.63;4122009;28;20023;-69
2021/11/15 02:00:21;;;;;;;10.73;6.22;;;10.30;99.90;;;9.89;100.00;101997.31;4136467;28;20030;-69
2021/11/15 02:02:26;;;;;;;9.65;6.95;;;10.30;99.90;;;9.78;100.00;101997.31;4121788;28;20380;-69
2021/11/15 02:04:27;;;;;;;12.13;7.68;;;10.20;99.90;;;9.90;100.00;102003.41;4121795;28;20030;-69
2021/11/15 02:06:28;;;;;;;11.50;7.90;;;10.20;99.90;;;9.87;100.00;102007.13;4121805;28;20023;-69
2021/11/15 02:08:30;;;;;;;12.25;7.85;;;10.20;99.90;;;9.74;100.00;101995.88;4152905;28;20131;-69
2021/11/15 02:10:31;;;;;;;10.55;7.60;;;10.10;99.90;;;9.71;100.00;102011.06;4122013;28;20386;-69
2021/11/15 02:12:32;;;;;;;10.77;7.70;;;10.10;99.90;;;9.63;100.00;102008.19;4121707;28;20101;-69
2021/11/15 02:14:34;;;;;;;10.82;8.75;;;10.10;99.90;;;9.73;100.00;102012.66;4121532;28;20023;-69
2021/11/15 02:16:35;;;;;;;12.15;8.20;;;10.00;99.90;;;9.69;100.00;102007.72;4134624;28;20105;-69
2021/11/15 02:18:36;;;;;;;10.90;8.32;;;10.00;99.90;;;9.66;100.00;102003.53;4137826;28;20118;-69
2021/11/15 02:20:48;;;;;;;18.60;9.77;;;10.00;99.90;;;9.54;100.00;102003.66;4136542;28;20062;-69
2021/11/15 02:22:51;;;;;;;9.73;6.07;;;10.00;99.90;;;9.58;100.00;102011.22;4132741;28;20030;-69
2021/11/15 02:24:52;;;;;;;13.15;9.07;;;9.90;99.90;;;9.72;100.00;102012.75;4137758;28;20482;-69
2021/11/15 02:26:54;;;;;;;12.35;8.10;;;9.90;99.90;;;9.60;100.00;102001.38;4137602;28;20041;-69
2021/11/15 02:28:55;;;;;;;13.32;9.32;;;9.90;99.90;;;9.61;100.00;102020.66;4137446;28;20517;-69
2021/11/15 02:30:57;;;;;;;14.50;7.90;;;9.90;99.90;;;9.50;100.00;102008.31;4137572;28;20022;-69
2021/11/15 02:32:58;;;;;;;12.73;7.95;;;9.90;99.90;;;9.44;100.00;102004.34;4137600;28;20509;-69
2021/11/15 02:34:59;;;;;;;12.95;8.88;;;9.80;99.90;;;9.28;100.00;102003.03;4137555;28;20036;-69
2021/11/15 02:37:00;;;;;;;10.50;8.68;;;9.80;99.90;;;9.45;100.00;102007.81;4137536;28;20502;-69
2021/11/15 02:39:02;;;;;;;11.77;8.32;;;9.80;99.90;;;9.41;100.00;102001.09;4137651;28;20548;-69
2021/11/15 02:41:04;;;;;;;14.98;8.80;;;9.80;99.90;;;9.44;100.00;102014.03;4137283;28;20038;-69
2021/11/15 02:43:05;;;;;;;14.05;9.05;;;9.80;99.90;;;9.62;100.00;102017.06;4136046;28;20062;-69
2021/11/15 02:45:09;;;;;;;13.82;9.57;;;9.80;99.90;;;9.70;100.00;102010.25;4135957;28;20031;-69
2021/11/15 02:47:10;;;;;;;12.75;8.85;;;9.80;99.90;;;9.70;100.00;102015.53;4137278;28;20490;-69
2021/11/15 02:49:11;;;;;;;14.00;9.05;;;9.80;99.90;;;9.59;100.00;102018.13;4122508;28;20093;-69
2021/11/15 02:51:13;;;;;;;14.00;8.57;;;9.90;99.90;;;9.49;100.00;102008.44;4121254;28;20086;-69
2021/11/15 02:53:14;;;;;;;13.52;8.65;;;9.80;99.90;;;9.48;100.00;102009.38;4152228;28;20025;-69
2021/11/15 02:55:15;;;;;;;13.68;9.02;;;9.80;99.90;;;9.49;100.00;102008.44;4152339;28;20500;-69
2021/11/15 02:57:19;;;;;;;14.13;10.02;;;9.80;99.90;;;9.37;100.00;102013.69;4120941;28;20123;-69
2021/11/15 02:59:20;;;;;;;15.18;10.25;;;9.80;99.90;;;9.38;100.00;101998.72;4108305;28;20089;-69
2021/11/15 03:01:22;;;;;;;12.55;9.20;;;9.70;99.90;;;9.39;100.00;102010.94;4128959;28;20549;-69
2021/11/15 03:03:25;;;;;;;11.55;8.13;;;9.70;99.90;;;9.30;100.00;102006.38;4137100;28;20030;-69
2021/11/15 03:05:30;;;;;;;11.45;8.50;;;9.70;99.90;;;9.31;100.00;102003.63;4136950;28;20073;-69
2021/11/15 03:07:30;;;;;;;10.93;8.73;;;9.70;99.90;;;9.26;100.00;101994.38;4137050;28;20117;-69
2021/11/15 03:09:31;;;;;;;13.77;9.90;;;9.60;99.90;;;9.52;100.00;102016.09;4137041;28;20018;-69
2021/11/15 03:11:33;;;;;;;14.55;9.07;;;9.60;99.90;;;9.37;100.00;102010.22;4136971;28;20037;-69
2021/11/15 03:13:42;;;;;;;12.63;9.15;;;9.70;99.90;;;9.28;100.00;102008.28;4136488;28;20022;-69
2021/11/15 03:15:49;;;;;;;15.35;8.77;;;9.60;99.90;;;9.21;100.00;102007.91;4134538;28;20073;-70
2021/11/15 03:18:06;;;;;;;14.40;9.25;;;9.50;99.90;;;9.18;100.00;102009.94;4130768;28;20061;-69
2021/11/15 03:20:08;;;;;;;14.55;9.88;;;9.50;99.90;;;9.16;100.00;102011.84;4136688;28;20042;-69
2021/11/15 03:22:09;;;;;;;13.07;8.15;;;9.50;99.90;;;8.97;100.00;101996.59;4137004;28;20022;-69
2021/11/15 03:24:10;;;;;;;12.48;8.55;;;9.40;99.90;;;9.00;100.00;102004.25;4136810;28;20105;-69
2021/11/15 03:26:12;;;;;;;12.02;9.48;;;9.40;99.90;;;9.04;100.00;102007.50;4136737;28;20026;-69
2021/11/15 03:28:16;;;;;;;13.05;9.95;;;9.30;99.90;;;9.00;100.00;102004.25;4136489;28;20034;-69
2021/11/15 03:30:17;;;;;;;12.02;8.73;;;9.30;99.90;;;8.89;100.00;102002.44;4136378;28;20031;-69
2021/11/15 03:32:18;;;;;;;13.38;9.57;;;9.30;99.90;;;8.93;100.00;102002.22;4136647;28;20045;-69
2021/11/15 03:34:19;;;;;;;12.85;8.90;;;9.30;99.90;;;8.88;100.00;101989.38;4136579;28;20466;-69
2021/11/15 03:36:20;;;;;;;9.63;7.80;;;9.20;99.90;;;8.83;100.00;101987.13;4136601;28;20510;-69
2021/11/15 03:38:21;;;;;;;12.73;8.73;;;9.20;99.90;;;8.71;100.00;101976.66;4136562;28;20034;-69
2021/11/15 03:40:25;;;;;;;11.80;9.05;;;9.10;99.90;;;8.70;100.00;101996.84;4136604;28;20030;-69
2021/11/15 03:42:26;;;;;;;13.45;8.88;;;9.10;99.90;;;8.62;100.00;101999.22;4135100;28;20133;-69
2021/11/15 03:44:27;;;;;;;12.27;8.35;;;9.00;99.90;;;8.51;100.00;102003.59;4135824;28;20034;-69
2021/11/15 03:46:28;;;;;;;12.20;8.55;;;9.00;99.90;;;8.50;100.00;102005.38;4136548;28;20058;-69
2021/11/15 03:48:30;;;;;;;12.55;7.75;;;8.90;99.90;;;8.54;100.00;102009.44;4126985;28;20384;-69
2021/11/15 03:50:31;;;;;;;11.40;7.30;;;8.90;99.90;;;8.54;100.00;102006.81;4120438;28;20027;-69
2021/11/15 03:52:32;;;;;;;6.82;5.32;;;8.90;99.90;;;8.56;100.00;102004.94;4120304;28;20059;-69
2021/11/15 03:54:33;;;;;;;8.13;6.45;;;8.80;99.90;;;8.40;100.00;101999.09;4120386;28;20138;-69
2021/11/15 03:56:34;;;;;;;11.88;7.90;;;8.80;99.90;;;8.30;100.00;101998.91;4120218;28;20230;-69
2021/11/15 03:58:36;;;;;;;12.15;7.35;;;8.70;99.90;;;8.30;100.00;102006.00;4150964;28;20509;-69
2021/11/15 04:00:40;;;;;;;8.73;6.90;;;8.70;99.90;;;8.18;100.00;101998.94;4120121;28;20042;-69
2021/11/15 04:02:42;;;;;;;;;;;8.60;99.90;;;8.22;100.00;102005.66;4120533;28;20027;-69
2021/11/15 04:04:51;;;;;;;8.80;6.40;;;8.70;99.90;;;8.17;100.00;102005.16;4128471;28;19910;-69
2021/11/15 04:06:53;;;;;;;10.65;7.00;;;8.50;99.90;;;8.10;100.00;101999.47;4133702;28;20030;-69
2021/11/15 04:09:01;;;;;;;8.90;6.28;;;8.50;99.90;;;8.06;100.00;101982.28;4135020;28;20022;-69
2021/11/15 04:11:07;;;;;;;10.98;6.82;;;8.50;99.90;;;8.00;100.00;101992.38;4128065;28;20034;-69
2021/11/15 04:13:21;;;;;;;7.53;6.20;;;8.40;99.90;;;7.94;100.00;101985.78;4136172;28;20080;-69
2021/11/15 04:15:23;;;;;;;9.65;6.28;;;8.40;99.90;;;7.98;100.00;101995.09;4135881;28;20073;-69
2021/11/15 04:17:24;;;;;;;8.80;6.90;;;8.40;99.90;;;8.01;100.00;101997.50;4136234;28;20036;-69
2021/11/15 04:19:25;;;;;;;10.85;6.82;;;8.30;99.90;;;8.07;100.00;102006.75;4136147;28;20041;-69
2021/11/15 04:21:29;;;;;;;8.23;6.47;;;8.40;99.90;;;8.06;100.00;102005.09;4135943;28;20037;-69
2021/11/15 04:23:30;;;;;;;10.40;7.13;;;8.30;99.90;;;8.00;100.00;102010.78;4136095;28;20044;-69
2021/11/15 04:25:31;;;;;;;7.45;6.47;;;8.30;99.90;;;7.87;100.00;102013.41;4136090;28;20065;-69
2021/11/15 04:27:33;;;;;;;12.23;7.72;;;8.30;99.90;;;7.76;100.00;102016.78;4136053;28;20088;-69
2021/11/15 04:29:35;;;;;;;8.68;6.97;;;8.30;99.90;;;7.58;100.00;101997.06;4135591;28;20386;-69
2021/11/15 04:31:36;;;;;;;9.68;7.00;;;8.30;99.90;;;7.68;100.00;102016.47;4136021;28;20057;-69
2021/11/15 04:33:37;;;;;;;12.95;7.53;;;8.20;99.90;;;7.87;100.00;102017.81;4134746;28;20022;-69
2021/11/15 04:35:38;;;;;;;12.10;7.40;;;8.20;99.90;;;7.95;100.00;102018.97;4129359;28;20031;-69
2021/11/15 04:37:40;;;;;;;8.07;6.72;;;8.30;99.90;;;8.03;100.00;102021.06;4134681;28;20030;-69
2021/11/15 04:39:41;;;;;;;14.23;10.45;;;8.40;99.90;;;8.04;100.00;102017.47;4135728;28;20034;-69
2021/11/15 04:41:42;;;;;;;18.15;11.93;;;8.50;99.90;;;8.32;100.00;102036.47;4135576;28;20506;-69
2021/11/15 04:43:43;;;;;;;24.85;13.82;;;8.60;99.90;;;8.49;100.00;102029.13;4134315;28;20030;-69
2021/11/15 04:45:44;;;;;;;33.03;14.75;;;8.80;99.90;;;8.51;100.00;102033.34;4135723;28;20026;-69
2021/11/15 04:47:45;;;;;;;17.92;12.95;;;8.90;99.90;;;8.70;100.00;102031.06;4133113;28;20062;-69
2021/11/15 04:49:46;;;;;;;20.85;13.15;;;9.10;99.90;;;8.69;100.00;102034.63;4119717;28;20051;-69
2021/11/15 04:51:48;;;;;;;25.80;13.57;;;9.20;99.90;;;8.69;100.00;102033.81;4119674;28;20023;-69
2021/11/15 04:53:49;;;;;;;31.02;13.82;;;9.20;99.90;;;8.73;100.00;102030.00;4130168;28;20031;-69
2021/11/15 04:55:50;;;;;;;16.75;12.30;;;9.30;99.90;;;8.75;100.00;102031.53;4134370;28;20165;-69
2021/11/15 04:57:54;;;;;;;18.15;13.65;;;9.30;99.90;;;9.02;100.00;102028.66;4135784;28;20597;-69
2021/11/15 04:59:55;;;;;;;36.83;14.38;;;9.40;99.90;;;9.14;100.00;102027.75;4135611;28;20053;-69
2021/11/15 05:01:56;;;;;;;33.30;14.05;;;9.50;99.90;;;9.02;100.00;102022.59;4135684;28;20026;-69
2021/11/15 05:03:57;;;;;;;16.50;13.20;;;9.50;99.90;;;9.09;100.00;102029.03;4134336;28;20038;-69
2021/11/15 05:05:57;;;;;;;28.25;14.23;;;9.50;99.90;;;8.84;100.00;102012.44;4124804;28;20022;-69
2021/11/15 05:07:58;;;;;;;55.47;16.13;;;9.60;99.90;;;9.01;100.00;102027.00;4135555;28;20412;-69
2021/11/15 05:09:59;;;;;;;34.05;13.82;;;9.60;99.90;;;9.03;100.00;102024.25;4135720;28;20077;-69
2021/11/15 05:12:02;;;;;;;25.17;13.95;;;9.50;99.90;;;9.05;100.00;102022.34;4135495;28;20682;-69
2021/11/15 05:14:03;;;;;;;18.05;13.25;;;9.60;99.90;;;8.97;100.00;102032.59;4135338;28;20026;-69
2021/11/15 05:16:05;;;;;;;39.35;13.20;;;9.50;99.90;;;9.17;100.00;102024.06;4135618;28;20023;-69
2021/11/15 05:18:06;;;;;;;38.05;13.48;;;9.60;99.90;;;9.11;100.00;102027.16;4135532;28;20038;-69
2021/11/15 05:20:09;;;;;;;33.78;13.82;;;9.60;99.90;;;8.85;100.00;102037.81;4135396;28;20030;-69
2021/11/15 05:22:10;;;;;;;25.80;14.30;;;9.60;99.90;;;8.99;100.00;102033.34;4135593;28;20542;-69
2021/11/15 05:24:11;;;;;;;29.02;14.15;;;9.50;99.90;;;8.86;100.00;102029.00;4134382;28;20041;-69
2021/11/15 05:26:12;;;;;;;33.85;13.90;;;9.50;99.90;;;9.01;100.00;102031.41;4131466;28;20042;-69
2021/11/15 05:28:13;;;;;;;17.73;13.48;;;9.50;99.90;;;9.14;100.00;102037.47;4135233;28;20030;-69
2021/11/15 05:30:18;;;;;;;18.35;13.50;;;9.50;99.90;;;9.12;100.00;102034.09;4135279;28;20026;-69
2021/11/15 05:32:18;;;;;;;;;;;9.60;99.90;;;8.92;100.00;102038.22;4135889;28;20014;-69
2021/11/15 05:34:19;;;;;;;15.93;11.65;;;9.60;99.90;;;8.96;100.00;102046.72;4135411;28;20349;-69
2021/11/15 05:36:20;;;;;;;27.70;12.82;;;9.50;99.90;;;8.80;100.00;102055.75;4135418;28;21074;-69
2021/11/15 05:38:21;;;;;;;29.80;13.73;;;9.50;99.90;;;8.71;100.00;102045.91;4135456;28;20022;-69
2021/11/15 05:40:25;;;;;;;26.20;14.13;;;9.40;99.90;;;8.69;100.00;102046.97;4137647;28;20117;-69
2021/11/15 05:42:26;;;;;;;30.45;13.98;;;9.40;99.90;;;8.71;100.00;102021.38;4138171;28;20054;-69
2021/11/15 05:44:27;;;;;;;23.65;14.27;;;9.40;99.90;;;8.68;100.00;102048.75;4138011;28;20034;-69
2021/11/15 05:46:31;;;;;;;24.90;14.25;;;9.40;99.90;;;8.75;100.00;102047.34;4138329;28;20069;-69
2021/11/15 05:48:33;;;;;;;23.75;14.55;;;9.40;99.90;;;8.98;100.00;102052.69;4127292;28;20051;-69
2021/11/15 05:50:34;;;;;;;32.38;14.65;;;9.40;99.90;;;8.93;100.00;102045.13;4134980;28;20033;-69
2021/11/15 05:52:42;;;;;;;26.73;14.23;;;9.40;99.90;;;8.93;100.00;102047.75;4138447;28;20026;-69
2021/11/15 05:54:43;;;;;;;33.03;13.88;;;9.40;99.90;;;8.93;100.00;102045.13;4138234;28;20402;-69
2021/11/15 05:56:44;;;;;;;29.98;14.30;;;9.40;99.90;;;8.71;100.00;102051.16;4138243;28;20086;-69
2021/11/15 05:58:45;;;;;;;25.60;14.32;;;9.40;99.90;;;8.73;100.00;102043.97;4137940;28;20038;-69
2021/11/15 06:00:46;;;;;;;27.55;14.85;;;9.40;99.90;;;8.88;100.00;102047.28;4138191;28;20077;-69
2021/11/15 06:02:47;;;;;;;29.60;15.52;;;9.40;99.90;;;8.85;100.00;102037.81;4138197;28;20022;-69
2021/11/15 06:04:48;;;;;;;129.35;18.92;;;9.40;99.90;;;8.63;100.00;102032.44;4138126;28;20038;-69
2021/11/15 06:06:51;;;;;;;23.08;13.68;;;9.30;99.90;;;8.69;100.00;102044.34;4138085;28;20026;-69
2021/11/15 06:08:52;;;;;;;22.15;15.80;;;9.30;99.90;;;8.72;100.00;102042.28;4138036;28;20444;-69
2021/11/15 06:10:53;;;;;;;35.30;16.55;;;9.30;99.90;;;8.79;100.00;102045.31;4136693;28;20014;-69
2021/11/15 06:12:54;;;;;;;23.73;14.93;;;9.30;99.90;;;8.80;100.00;102045.22;4131209;28;20073;-69
2021/11/15 06:14:55;;;;;;;30.95;15.40;;;9.30;99.90;;;8.73;100.00;102043.13;4137712;28;20425;-69
2021/11/15 06:16:56;;;;;;;25.70;16.17;;;9.30;99.90;;;8.73;100.00;102043.97;4137669;28;20034;-69
2021/11/15 06:18:56;;;;;;;54.05;16.58;;;9.30;99.90;;;8.49;100.00;102040.50;4137851;28;20054;-69
2021/11/15 06:20:57;;;;;;;31.50;15.55;;;9.20;99.90;;;8.45;100.00;102035.59;4136657;28;20085;-69
2021/11/15 06:22:59;;;;;;;19.92;13.77;;;9.20;99.90;;;8.52;100.00;102042.91;4133675;28;20053;-69
2021/11/15 06:25:00;;;;;;;60.80;16.45;;;9.10;99.90;;;8.47;100.00;102026.63;4137601;28;20034;-69
2021/11/15 06:27:01;;;;;;;23.83;14.80;;;9.10;99.90;;;8.62;100.00;102036.03;4137558;28;20028;-69
2021/11/15 06:29:03;;;;;;;29.55;15.32;;;9.10;99.90;;;8.56;100.00;102036.50;4137241;28;20030;-69
2021/11/15 06:31:08;;;;;;;20.85;14.90;;;9.20;99.90;;;8.62;100.00;102043.94;4137272;28;20023;-69
2021/11/15 06:33:09;;;;;;;32.33;15.10;;;9.20;99.90;;;8.70;100.00;102035.47;4137437;28;20085;-69
2021/11/15 06:35:11;;;;;;;19.48;14.07;;;9.20;99.90;;;8.74;100.00;102044.81;4137593;28;20496;-69
2021/11/15 06:37:12;;;;;;;44.60;15.18;;;9.20;99.90;;;8.63;100.00;102035.06;4137501;28;20057;-69
2021/11/15 06:39:13;;;;;;;22.15;13.02;;;9.20;99.90;;;8.54;100.00;102037.56;4136196;28;20130;-69
2021/11/15 06:41:15;;;;;;;37.17;15.23;;;9.10;99.90;;;8.64;100.00;102038.56;4136600;28;20027;-69
2021/11/15 06:43:15;;;;;;;32.83;15.40;;;9.10;99.90;;;8.74;100.00;102050.09;4137433;28;20037;-69
2021/11/15 06:45:17;;;;;;;21.83;13.85;;;9.20;99.90;;;8.80;100.00;102058.38;4137058;28;20031;-69
2021/11/15 06:47:21;;;;;;;31.88;14.90;;;9.20;99.90;;;8.73;100.00;102054.50;4135967;28;20085;-69
2021/11/15 06:49:22;;;;;;;21.00;14.25;;;9.20;99.90;;;8.63;100.00;102058.75;4137208;28;20058;-69
2021/11/15 06:51:24;;;;;;;25.80;14.63;;;9.10;99.90;;;8.52;100.00;102063.94;4136217;28;20053;-69
2021/11/15 06:53:24;;;;;;;20.98;13.98;;;9.10;99.90;;;8.63;100.00;102069.25;4137109;28;20122;-69
2021/11/15 06:55:26;;;;;;;28.33;14.02;;;9.10;99.90;;;8.65;100.00;102056.03;4137131;28;20486;-69
2021/11/15 06:57:28;;;;;;;21.73;13.70;;;9.20;99.90;;;8.74;100.00;102076.41;4136884;28;20061;-69
2021/11/15 06:59:29;;;;;;;19.80;13.85;;;9.20;99.90;;;8.74;100.00;102071.97;4136934;28;20489;-69
2021/11/15 07:01:35;;;;;;;21.30;14.40;;;9.20;99.90;;;8.76;100.00;102074.47;4136956;28;20041;-69
2021/11/15 07:03:36;;;;;;;30.92;13.80;;;9.20;99.90;;;8.78;100.00;102076.03;4136757;28;20026;-69
2021/11/15 07:05:37;;;;;;;54.20;14.55;;;9.20;99.90;;;8.62;100.00;102074.66;4136945;28;20450;-69
2021/11/15 07:07:38;;;;;;;15.95;12.60;;;9.20;99.90;;;8.72;100.00;102080.94;4136854;28;20479;-69
2021/11/15 07:09:46;;;;;;;21.23;13.23;;;9.20;99.90;;;8.61;100.00;102081.69;4136756;28;20079;-69
2021/11/15 07:11:48;;;;;;;33.40;14.00;;;9.20;99.90;;;8.50;100.00;102065.88;4136702;28;20057;-69
2021/11/15 07:13:49;;;;;;;31.15;14.82;;;9.20;99.90;;;8.44;100.00;102079.44;4136617;28;20487;-69
2021/11/15 07:15:50;;;;;;;32.08;13.57;;;9.10;99.90;;;8.22;100.00;102068.72;4136626;28;20030;-69
2021/11/15 07:17:50;;;;;;;24.30;13.13;;;9.00;99.90;;;8.38;100.00;102073.78;4135506;28;20034;-69
2021/11/15 07:19:51;;;;;;;17.30;12.82;;;9.00;99.90;;;8.44;100.00;102079.44;4136621;28;20474;-69
2021/11/15 07:21:52;;;;;;;24.52;14.23;;;9.00;99.90;;;8.39;100.00;102084.22;4136832;28;20402;-69
2021/11/15 07:23:53;;;;;;;54.22;14.20;;;9.00;99.90;;;8.42;100.00;102086.63;4136788;28;20108;-69
2021/11/15 07:25:54;;;;;;;39.17;13.80;;;9.00;99.90;;;8.32;100.00;102082.94;4136708;28;20109;-69
2021/11/15 07:27:57;;;;;;;43.75;14.30;;;9.00;99.90;;;8.22;100.00;102084.50;4135107;28;20026;-69
2021/11/15 07:29:58;;;;;;;28.60;13.68;;;8.90;99.90;;;8.26;100.00;102078.94;4123664;28;20032;-69
2021/11/15 07:32:00;;;;;;;33.30;13.75;;;8.90;99.90;;;8.31;100.00;102084.72;4135397;28;20089;-69
2021/11/15 07:34:02;;;;;;;40.83;15.38;;;8.90;99.90;;;8.23;100.00;102096.72;4130035;28;20030;-69
2021/11/15 07:36:03;;;;;;;18.13;14.02;;;8.90;99.90;;;8.29;100.00;102091.91;4136347;28;20018;-69
2021/11/15 07:38:04;;;;;;;23.92;14.38;;;8.90;99.90;;;8.25;100.00;102095.66;4136509;28;20073;-69
2021/11/15 07:40:11;;;;;;;18.80;13.40;;;8.90;99.90;;;8.36;100.00;102096.72;4136365;28;20478;-69
2021/11/15 07:42:15;;;;;;;22.42;14.73;;;8.90;99.90;;;8.44;100.00;102107.53;4136359;28;20054;-69
2021/11/15 07:44:16;;;;;;;20.90;14.35;;;9.00;99.90;;;8.47;100.00;102110.78;4118999;28;20390;-69
2021/11/15 07:46:17;;;;;;;21.50;13.88;;;9.00;99.90;;;8.62;100.00;102120.22;4124306;28;20049;-69
2021/11/15 07:48:18;;;;;;;26.42;16.05;;;9.10;99.90;;;8.60;100.00;102122.09;4129055;28;20027;-69
2021/11/15 07:50:19;;;;;;;23.25;14.30;;;9.10;99.90;;;8.70;100.00;102123.13;4120103;28;20066;-69
2021/11/15 07:52:21;;;;;;;24.75;16.73;;;9.20;99.90;;;8.72;100.00;102120.41;4120007;28;20027;-69
2021/11/15 07:54:22;;;;;;;26.60;16.95;;;9.30;99.90;;;8.81;100.00;102123.19;4120196;28;20066;-69
2021/11/15 07:56:23;;;;;;;26.05;17.00;;;9.30;99.90;;;8.66;100.00;102111.13;4120028;28;20089;-69
2021/11/15 07:58:24;;;;;;;25.83;18.17;;;9.30;99.90;;;8.62;100.00;102107.06;4119716;28;20169;-69
2021/11/15 08:00:25;;;;;;;26.50;17.02;;;9.30;99.90;;;8.65;100.00;102124.41;4119903;28;20150;-69
2021/11/15 08:02:26;;;;;;;33.78;19.58;;;9.30;99.90;;;8.59;100.00;102120.44;4119729;28;20026;-69
2021/11/15 08:04:27;;;;;;;30.05;19.20;;;9.20;99.90;;;8.56;100.00;102127.69;4119967;28;20117;-69
2021/11/15 08:06:28;;;;;;;35.53;19.40;;;9.30;99.90;;;8.55;100.00;102123.38;4128448;28;20035;-69
2021/11/15 08:08:29;;;;;;;33.00;19.63;;;9.20;99.90;;;8.33;100.00;102127.53;4132780;28;20026;-69
2021/11/15 08:10:30;;;;;;;35.80;20.73;;;9.20;99.90;;;8.51;100.00;102125.38;4136004;28;20085;-69
2021/11/15 08:12:54;;;;;;;31.77;18.80;;;9.20;99.90;;;8.42;100.00;102130.47;4134721;28;20026;-69
2021/11/15 08:15:00;;;;;;;32.28;19.63;;;9.20;99.90;;;8.28;100.00;102115.66;4131613;28;20140;-69
2021/11/15 08:17:01;;;;;;;34.50;19.65;;;9.20;99.90;;;8.42;100.00;102133.94;4123003;28;20072;-69
2021/11/15 08:19:03;;;;;;;32.28;19.63;;;9.20;99.90;;;8.51;100.00;102145.59;4135903;28;20030;-69
2021/11/15 08:21:11;;;;;;;32.90;18.98;;;9.20;99.90;;;8.49;100.00;102135.16;4135708;28;20089;-69
2021/11/15 08:23:18;;;;;;;34.97;19.75;;;9.20;99.90;;;8.53;100.00;102134.03;4133322;28;20046;-69